Time;durP1;ratioP1;P1;durP2;ratioP2;P2;SDS_P1;SDS_P2;PMS_P1;PMS_P2;Temp;Humidity;BMP_temperature;BMP_pressure;BME280_temperature;BME280_humidity;BME280_pressure;Samples;Min_cycle;Max_cycle;Signal;HPM_P1;HPM_P2
2022/11/03 00:01:38;;;;;;;10.32;2.22;;;14.50;96.00;;;;;;5034399;28;19999;-71
2022/11/03 00:04:08;;;;;;;9.63;2.50;;;14.50;96.40;;;;;;5034598;28;20396;-71
2022/11/03 00:06:34;;;;;;;14.77;2.78;;;14.60;96.20;;;;;;5034422;28;20025;-69
2022/11/03 00:09:02;;;;;;;9.25;2.47;;;14.60;96.30;;;;;;5034040;28;20478;-70
2022/11/03 00:11:28;;;;;;;9.05;2.80;;;14.60;96.20;;;;;;5034274;28;20041;-71
2022/11/03 00:13:53;;;;;;;13.80;2.67;;;14.60;96.20;;;;;;5034736;28;20344;-70
2022/11/03 00:16:19;;;;;;;11.93;2.53;;;14.60;96.20;;;;;;5034153;28;20078;-64
2022/11/03 00:18:45;;;;;;;9.60;2.63;;;14.60;96.30;;;;;;5034206;28;20017;-70
2022/11/03 00:21:13;;;;;;;14.13;2.40;;;14.60;96.30;;;;;;5033816;28;20048;-61
2022/11/03 00:23:40;;;;;;;7.82;2.50;;;14.60;96.40;;;;;;5033897;28;20044;-63
2022/11/03 00:26:19;;;;;;;9.88;2.40;;;14.60;96.40;;;;;;5033938;28;20465;-62
2022/11/03 00:28:46;;;;;;;12.60;2.83;;;14.60;96.50;;;;;;5034090;28;20495;-61
2022/11/03 00:31:17;;;;;;;11.77;2.67;;;14.50;96.50;;;;;;5033855;28;20063;-65
2022/11/03 00:33:43;;;;;;;11.45;2.55;;;14.60;96.60;;;;;;5034246;28;20057;-61
2022/11/03 00:36:14;;;;;;;9.35;2.67;;;14.60;96.60;;;;;;5033797;28;20528;-65
2022/11/03 00:38:40;;;;;;;8.73;1.98;;;14.60;96.60;;;;;;5033471;28;20052;-65
2022/11/03 00:41:06;;;;;;;10.90;2.45;;;14.50;96.70;;;;;;5032348;28;20100;-60
2022/11/03 00:43:34;;;;;;;15.18;3.35;;;14.50;96.70;;;;;;5033765;28;20581;-59
2022/11/03 00:46:00;;;;;;;11.43;2.65;;;14.50;96.70;;;;;;5033793;28;20060;-64
2022/11/03 00:48:29;;;;;;;12.40;2.40;;;14.50;96.80;;;;;;5033584;28;20029;-60
2022/11/03 00:51:08;;;;;;;10.57;2.72;;;14.60;96.90;;;;;;5032495;28;20029;-65
2022/11/03 00:53:36;;;;;;;10.10;2.72;;;14.50;96.90;;;;;;5032938;28;20040;-66
2022/11/03 00:56:03;;;;;;;17.23;3.75;;;14.50;97.00;;;;;;5033889;28;20025;-64
2022/11/03 00:58:28;;;;;;;12.35;2.75;;;14.50;97.10;;;;;;5033068;28;20418;-61
2022/11/03 01:01:06;;;;;;;14.85;3.08;;;14.50;97.20;;;;;;5033209;28;20071;-60
2022/11/03 01:03:34;;;;;;;11.77;2.35;;;14.50;97.20;;;;;;5032127;28;20060;-65
2022/11/03 01:08:44;;;;;;;10.70;2.00;;;14.50;97.30;;;;;;5033290;28;20394;-61
2022/11/03 01:13:57;;;;;;;11.02;2.55;;;14.50;97.40;;;;;;5033194;28;20402;-61
2022/11/03 01:16:23;;;;;;;12.60;2.20;;;14.50;97.50;;;;;;5033324;28;20108;-65
2022/11/03 01:18:49;;;;;;;12.73;2.15;;;14.50;97.60;;;;;;5033168;28;20084;-65
2022/11/03 01:21:15;;;;;;;12.80;2.75;;;14.50;97.60;;;;;;5032875;28;20108;-68
2022/11/03 01:23:41;;;;;;;12.65;3.10;;;14.50;97.60;;;;;;5032921;28;20406;-64
2022/11/03 01:26:09;;;;;;;12.07;2.47;;;14.50;97.70;;;;;;5032987;28;20517;-60
2022/11/03 01:28:36;;;;;;;13.68;3.03;;;14.40;97.70;;;;;;5032854;28;20124;-59
2022/11/03 01:31:06;;;;;;;11.32;2.80;;;14.40;97.80;;;;;;5032850;28;20017;-62
2022/11/03 01:33:31;;;;;;;8.50;2.47;;;14.40;97.80;;;;;;5032928;28;20079;-64
2022/11/03 01:35:57;;;;;;;9.02;2.38;;;14.40;97.90;;;;;;5031594;28;20022;-65
2022/11/03 01:38:23;;;;;;;11.90;2.40;;;14.40;98.00;;;;;;5032620;28;20037;-61
2022/11/03 01:40:48;;;;;;;10.18;2.47;;;14.40;98.00;;;;;;5033126;28;20474;-67
2022/11/03 01:43:20;;;;;;;11.38;2.67;;;14.40;98.00;;;;;;5032672;28;20474;-64
2022/11/03 01:45:49;;;;;;;7.53;2.10;;;14.40;98.10;;;;;;5032941;28;20026;-62
2022/11/03 01:48:16;;;;;;;14.55;2.90;;;14.40;98.10;;;;;;5032796;28;20485;-60
2022/11/03 01:50:44;;;;;;;11.13;2.55;;;14.40;98.20;;;;;;5032618;28;20030;-60
2022/11/03 01:53:11;;;;;;;12.90;2.97;;;14.40;98.30;;;;;;5032587;28;20026;-60
2022/11/03 01:55:40;;;;;;;11.13;2.50;;;14.40;98.30;;;;;;5033050;28;20025;-60
2022/11/03 01:58:13;;;;;;;14.02;2.55;;;14.40;98.30;;;;;;5032634;28;20033;-61
2022/11/03 02:00:42;;;;;;;9.43;2.15;;;14.40;98.40;;;;;;5032824;28;20031;-60
2022/11/03 02:03:09;;;;;;;12.82;2.65;;;14.40;98.50;;;;;;5032351;28;20404;-60
2022/11/03 02:05:35;;;;;;;11.82;2.45;;;14.40;98.50;;;;;;5032671;28;20032;-61
2022/11/03 02:08:07;;;;;;;10.18;2.17;;;14.40;98.60;;;;;;5031333;28;20530;-60
2022/11/03 02:10:34;;;;;;;11.38;2.50;;;14.40;98.60;;;;;;5032486;28;20038;-60
2022/11/03 02:13:04;;;;;;;12.00;2.85;;;14.40;98.70;;;;;;5036552;28;20074;-60
2022/11/03 02:15:31;;;;;;;12.00;2.42;;;14.40;98.80;;;;;;5036451;28;20021;-60
2022/11/03 02:17:59;;;;;;;9.35;2.13;;;14.40;98.80;;;;;;5036508;28;20160;-65
2022/11/03 02:20:28;;;;;;;9.02;2.45;;;14.40;98.90;;;;;;5036010;28;20022;-60
2022/11/03 02:23:11;;;;;;;13.18;2.72;;;14.40;98.90;;;;;;5036544;28;20044;-64
2022/11/03 02:25:46;;;;;;;10.23;2.22;;;14.40;99.00;;;;;;5036091;28;20036;-61
2022/11/03 02:28:21;;;;;;;9.57;2.45;;;14.40;99.00;;;;;;5036325;28;20025;-65
2022/11/03 02:30:52;;;;;;;9.50;2.17;;;14.40;99.30;;;;;;5036407;28;20014;-62
2022/11/03 02:33:24;;;;;;;12.48;2.85;;;14.40;99.10;;;;;;5036404;28;20069;-64
2022/11/03 02:36:06;;;;;;;8.57;2.15;;;14.40;99.10;;;;;;5036138;28;20021;-66
2022/11/03 02:38:37;;;;;;;10.30;2.45;;;14.40;99.10;;;;;;5036003;28;20029;-66
2022/11/03 02:41:06;;;;;;;10.20;2.85;;;14.40;99.20;;;;;;5036040;28;20018;-66
2022/11/03 02:43:32;;;;;;;9.27;2.40;;;14.40;99.20;;;;;;5036123;28;20029;-68
2022/11/03 02:45:59;;;;;;;8.95;2.60;;;14.40;99.20;;;;;;5035883;28;20013;-59
2022/11/03 02:48:25;;;;;;;9.05;2.70;;;14.40;99.20;;;;;;5035600;28;20031;-60
2022/11/03 02:50:50;;;;;;;9.95;2.35;;;14.40;99.20;;;;;;5036012;28;20104;-59
2022/11/03 02:53:16;;;;;;;10.75;2.00;;;14.40;99.30;;;;;;5035761;28;20478;-62
2022/11/03 02:56:09;;;;;;;9.52;2.30;;;14.40;99.30;;;;;;5035668;28;20061;-59
2022/11/03 02:59:06;;;;;;;13.95;3.05;;;14.40;99.50;;;;;;5036281;28;20120;-59
2022/11/03 03:01:35;;;;;;;8.75;2.13;;;14.40;99.30;;;;;;5035639;28;20067;-60
2022/11/03 03:04:07;;;;;;;8.65;2.10;;;14.40;99.40;;;;;;5035505;28;20044;-60
2022/11/03 03:06:37;;;;;;;9.20;2.20;;;14.40;99.40;;;;;;5035686;28;20020;-59
2022/11/03 03:09:10;;;;;;;13.80;3.05;;;14.40;99.40;;;;;;5035401;28;20037;-66
2022/11/03 03:11:41;;;;;;;8.30;2.38;;;14.40;99.40;;;;;;5035523;28;20095;-66
2022/11/03 03:14:14;;;;;;;11.55;2.17;;;14.40;99.40;;;;;;5035421;28;20352;-59
2022/11/03 03:16:52;;;;;;;10.07;2.50;;;14.30;99.40;;;;;;5035070;28;20025;-67
2022/11/03 03:19:27;;;;;;;12.90;2.50;;;14.40;99.50;;;;;;5035183;28;20029;-59
2022/11/03 03:21:56;;;;;;;8.88;2.30;;;14.40;99.50;;;;;;5034564;28;20091;-59
2022/11/03 03:24:32;;;;;;;11.82;2.53;;;14.40;99.60;;;;;;5035041;28;20080;-59
2022/11/03 03:27:01;;;;;;;12.82;2.22;;;14.40;99.60;;;;;;5035236;28;20056;-58
2022/11/03 03:29:35;;;;;;;9.25;2.05;;;14.40;99.60;;;;;;5034989;28;20053;-60
2022/11/03 03:32:05;;;;;;;8.27;2.17;;;14.40;99.70;;;;;;5033749;28;20511;-59
2022/11/03 03:34:33;;;;;;;9.80;2.60;;;14.30;99.70;;;;;;5035172;28;20060;-58
2022/11/03 03:36:59;;;;;;;12.85;2.40;;;14.40;99.70;;;;;;5034992;28;20025;-58
2022/11/03 03:39:31;;;;;;;9.00;2.40;;;14.30;99.70;;;;;;5034743;28;20036;-61
2022/11/03 03:41:57;;;;;;;12.05;2.38;;;14.40;99.80;;;;;;5034954;28;20018;-59
2022/11/03 03:44:24;;;;;;;11.88;2.42;;;14.40;99.80;;;;;;5034711;28;20044;-59
2022/11/03 03:46:59;;;;;;;15.40;2.53;;;14.30;99.80;;;;;;5034602;28;20052;-59
2022/11/03 03:49:25;;;;;;;8.88;1.85;;;14.30;99.80;;;;;;5036753;28;20036;-60
2022/11/03 03:51:51;;;;;;;9.43;2.53;;;14.30;99.90;;;;;;5043101;28;20026;-59
2022/11/03 03:54:16;;;;;;;13.73;2.63;;;14.40;99.90;;;;;;5033875;28;20032;-59
2022/11/03 03:56:50;;;;;;;7.72;1.95;;;14.30;99.90;;;;;;5034203;28;20069;-59
2022/11/03 03:59:16;;;;;;;14.52;3.45;;;14.40;99.90;;;;;;5034518;28;20052;-59
2022/11/03 04:01:41;;;;;;;8.88;2.10;;;14.30;99.90;;;;;;5034192;28;20033;-66
2022/11/03 04:04:07;;;;;;;11.43;2.33;;;14.40;99.90;;;;;;5034432;28;20021;-60
2022/11/03 04:06:32;;;;;;;9.80;2.45;;;14.40;99.90;;;;;;5034369;28;20026;-67
2022/11/03 04:08:58;;;;;;;8.10;2.30;;;14.40;99.90;;;;;;5034531;28;20109;-62
2022/11/03 04:22:21;;;;;;;10.48;2.47;;;14.40;99.90;;;;;;5034021;28;20031;-64
2022/11/03 04:24:50;;;;;;;10.23;2.53;;;14.30;99.90;;;;;;5033995;28;20037;-66
2022/11/03 04:27:16;;;;;;;7.68;2.05;;;14.30;99.90;;;;;;5033961;28;20104;-64
2022/11/03 04:29:41;;;;;;;7.93;1.88;;;14.30;99.90;;;;;;5033830;28;20053;-71
2022/11/03 04:32:14;;;;;;;9.00;2.40;;;14.30;99.90;;;;;;5033839;28;20509;-63
2022/11/03 04:34:40;;;;;;;7.97;2.20;;;14.30;99.90;;;;;;5033193;28;20026;-61
2022/11/03 04:37:10;;;;;;;11.23;2.50;;;14.30;99.90;;;;;;5033762;28;20029;-62
2022/11/03 04:39:36;;;;;;;8.63;2.60;;;14.30;99.90;;;;;;5033752;28;20024;-64
2022/11/03 04:42:03;;;;;;;11.55;2.30;;;14.30;99.90;;;;;;5033739;28;20025;-65
2022/11/03 04:44:29;;;;;;;11.38;1.98;;;14.30;99.90;;;;;;5033493;28;20024;-64
2022/11/03 04:46:55;;;;;;;12.18;2.78;;;14.30;99.90;;;;;;5033670;28;20025;-61
2022/11/03 04:49:22;;;;;;;12.15;2.53;;;14.30;99.90;;;;;;5033676;28;20478;-65
2022/11/03 04:51:48;;;;;;;11.85;2.33;;;14.30;99.90;;;;;;5033556;28;20034;-68
2022/11/03 04:54:22;;;;;;;8.25;2.55;;;14.30;99.90;;;;;;5033677;28;20043;-64
2022/11/03 04:56:47;;;;;;;8.68;2.40;;;14.40;99.90;;;;;;5033461;28;20025;-61
2022/11/03 04:59:15;;;;;;;8.30;2.30;;;14.30;99.90;;;;;;5033178;28;20025;-67
2022/11/03 05:01:42;;;;;;;13.23;2.75;;;14.30;99.90;;;;;;5033448;28;20039;-64
2022/11/03 05:04:12;;;;;;;8.07;2.17;;;14.30;99.90;;;;;;5033398;28;20527;-62
2022/11/03 05:06:40;;;;;;;9.95;2.60;;;14.40;99.90;;;;;;5033561;28;20024;-65
2022/11/03 05:09:18;;;;;;;8.60;2.33;;;14.30;99.90;;;;;;5033541;28;20017;-62
2022/11/03 05:11:45;;;;;;;6.43;1.98;;;14.30;99.90;;;;;;5033258;28;20033;-64
2022/11/03 05:14:20;;;;;;;9.35;2.00;;;14.40;99.90;;;;;;5032838;28;20026;-67
2022/11/03 05:16:49;;;;;;;9.18;2.35;;;14.30;99.90;;;;;;5033284;28;20033;-65
2022/11/03 05:19:19;;;;;;;9.73;2.38;;;14.40;99.90;;;;;;5033117;28;20022;-67
2022/11/03 05:21:48;;;;;;;12.25;2.63;;;14.40;99.40;;;;;;5032057;28;20018;-70
2022/11/03 05:24:15;;;;;;;8.23;2.08;;;14.40;98.70;;;;;;5032964;28;20032;-67
2022/11/03 05:26:41;;;;;;;9.75;2.40;;;14.40;98.80;;;;;;5032794;28;20044;-62
2022/11/03 05:29:18;;;;;;;14.38;2.70;;;14.40;98.70;;;;;;5033059;28;20479;-65
2022/11/03 05:31:46;;;;;;;11.50;2.30;;;14.50;98.80;;;;;;5031884;28;20028;-68
2022/11/03 05:34:34;;;;;;;10.20;2.70;;;14.50;98.90;;;;;;5032846;28;20085;-66
2022/11/03 05:37:06;;;;;;;4.35;1.70;;;14.50;98.80;;;;;;5033023;28;20032;-64
2022/11/03 05:39:41;;;;;;;11.70;2.38;;;14.40;98.90;;;;;;5032861;28;20131;-62
2022/11/03 05:42:22;;;;;;;7.63;2.35;;;14.40;98.70;;;;;;5032722;28;20097;-68
2022/11/03 05:44:49;;;;;;;5.45;2.40;;;14.50;98.80;;;;;;5032412;28;20116;-62
2022/11/03 05:47:33;;;;;;;10.30;3.00;;;14.50;99.00;;;;;;5032760;28;20018;-61
2022/11/03 05:50:17;;;;;;;7.43;2.60;;;14.50;99.00;;;;;;5035927;28;20021;-61
2022/11/03 05:52:45;;;;;;;9.38;2.33;;;14.40;99.10;;;;;;5047725;28;20033;-67
2022/11/03 05:55:34;;;;;;;12.45;2.25;;;14.40;99.10;;;;;;5052982;28;20025;-63
2022/11/03 05:58:22;;;;;;;8.65;2.17;;;14.40;99.10;;;;;;5052016;28;20129;-63
2022/11/03 06:00:48;;;;;;;6.50;1.95;;;14.50;99.00;;;;;;5048437;28;20541;-65
2022/11/03 06:03:28;;;;;;;12.70;2.85;;;14.50;99.20;;;;;;5048221;28;20112;-66
2022/11/03 06:05:55;;;;;;;6.82;1.80;;;14.50;99.30;;;;;;5044744;28;20486;-65
2022/11/03 06:08:26;;;;;;;11.68;2.63;;;14.50;99.00;;;;;;5039009;28;20029;-70
2022/11/03 06:10:57;;;;;;;5.65;1.73;;;14.50;99.00;;;;;;5043460;28;20314;-71
2022/11/03 06:13:31;;;;;;;8.05;2.25;;;14.50;98.80;;;;;;5045090;28;20037;-66
2022/11/03 06:16:12;;;;;;;11.40;2.85;;;14.50;99.80;;;;;;5050071;28;20071;-74
2022/11/03 06:18:38;;;;;;;8.95;1.92;;;14.50;99.90;;;;;;5048322;28;20029;-74
2022/11/03 06:21:11;;;;;;;5.85;1.98;;;14.50;99.90;;;;;;5051447;28;20099;-74
2022/11/03 06:23:39;;;;;;;9.43;2.80;;;14.60;99.90;;;;;;5051501;28;20064;-75
2022/11/03 06:26:13;;;;;;;14.65;2.70;;;14.50;99.90;;;;;;5051214;28;20075;-74
2022/11/03 06:28:39;;;;;;;12.88;3.13;;;14.60;99.90;;;;;;5044740;28;20056;-64
2022/11/03 06:31:17;;;;;;;10.18;2.55;;;14.60;99.90;;;;;;5046847;28;20470;-67
2022/11/03 06:33:43;;;;;;;14.25;2.85;;;14.50;99.90;;;;;;5046809;28;20047;-62
2022/11/03 06:36:15;;;;;;;10.30;2.72;;;14.50;99.90;;;;;;5038329;28;20033;-62
2022/11/03 06:38:42;;;;;;;10.27;2.50;;;14.50;99.90;;;;;;5038517;28;20513;-73
2022/11/03 06:41:25;;;;;;;9.07;2.72;;;14.50;99.90;;;;;;5043502;28;20536;-73
2022/11/03 06:43:51;;;;;;;11.38;2.88;;;14.50;99.90;;;;;;5047174;28;20056;-71
2022/11/03 06:46:25;;;;;;;13.60;2.97;;;14.50;99.90;;;;;;5047517;28;20500;-74
2022/11/03 06:48:59;;;;;;;10.82;2.78;;;14.50;99.90;;;;;;5034542;28;20488;-70
2022/11/03 06:51:29;;;;;;;10.93;2.67;;;14.60;99.90;;;;;;5039868;28;20021;-70
2022/11/03 06:53:58;;;;;;;15.82;2.78;;;14.50;99.90;;;;;;5041925;28;20024;-63
2022/11/03 06:56:30;;;;;;;11.75;3.42;;;14.60;99.90;;;;;;5045774;28;20029;-65
2022/11/03 06:58:57;;;;;;;11.40;2.15;;;14.60;99.90;;;;;;5055161;28;20090;-62
2022/11/03 07:01:29;;;;;;;12.07;2.92;;;14.60;99.90;;;;;;5048230;28;20397;-69
2022/11/03 07:04:11;;;;;;;10.30;2.58;;;14.70;99.90;;;;;;5052452;28;20017;-69
2022/11/03 07:06:37;;;;;;;14.85;3.05;;;14.70;99.90;;;;;;5051605;28;20394;-64
2022/11/03 07:09:06;;;;;;;11.15;3.40;;;14.70;99.90;;;;;;5052943;28;20021;-70
2022/11/03 07:11:41;;;;;;;10.93;2.40;;;14.60;99.90;;;;;;5050667;28;20025;-67
2022/11/03 07:14:15;;;;;;;12.30;3.42;;;14.60;99.90;;;;;;5055147;28;20029;-65
2022/11/03 07:16:44;;;;;;;13.02;2.75;;;14.60;99.90;;;;;;5062303;28;20029;-68
2022/11/03 07:19:26;;;;;;;14.10;3.33;;;14.60;99.90;;;;;;5045405;28;20029;-63
2022/11/03 07:21:53;;;;;;;10.20;2.40;;;14.60;99.90;;;;;;5052055;28;20505;-63
2022/11/03 07:24:28;;;;;;;10.32;3.00;;;14.60;99.90;;;;;;5060901;28;20043;-65
2022/11/03 07:27:21;;;;;;;12.50;2.67;;;14.60;99.90;;;;;;5051470;28;20084;-64
2022/11/03 07:29:48;;;;;;;13.23;3.45;;;14.60;99.90;;;;;;5052185;28;20037;-73
2022/11/03 07:32:19;;;;;;;10.20;2.55;;;14.60;99.90;;;;;;5054745;28;20098;-67
2022/11/03 07:34:46;;;;;;;11.23;2.70;;;14.70;99.90;;;;;;5044483;28;20029;-66
2022/11/03 07:37:18;;;;;;;6.85;2.20;;;14.70;99.90;;;;;;5045423;28;20068;-66
2022/11/03 07:39:46;;;;;;;15.15;3.05;;;14.70;99.90;;;;;;5049455;28;20029;-69
2022/11/03 07:42:18;;;;;;;14.35;2.80;;;14.70;99.90;;;;;;5048807;28;20111;-65
2022/11/03 07:44:44;;;;;;;15.30;3.17;;;14.70;99.90;;;;;;5045573;28;20331;-64
2022/11/03 07:47:17;;;;;;;12.75;3.00;;;14.60;99.90;;;;;;5039655;28;20022;-73
2022/11/03 07:49:44;;;;;;;9.98;2.65;;;14.70;99.90;;;;;;5040783;28;20549;-66
2022/11/03 07:52:13;;;;;;;16.83;3.63;;;14.60;99.90;;;;;;5043540;28;20029;-61
2022/11/03 07:54:39;;;;;;;17.27;3.10;;;14.60;99.90;;;;;;5046027;28;20017;-69
2022/11/03 07:57:13;;;;;;;10.60;2.67;;;14.60;99.90;;;;;;5046310;28;20720;-68
2022/11/03 07:59:42;;;;;;;9.88;2.47;;;14.60;99.90;;;;;;5045913;28;20059;-65
2022/11/03 08:02:30;;;;;;;9.95;2.50;;;14.60;99.90;;;;;;5048508;28;20656;-64
2022/11/03 08:04:55;;;;;;;10.43;2.80;;;14.60;99.90;;;;;;5055290;28;20025;-68
2022/11/03 08:07:21;;;;;;;13.63;3.10;;;14.60;99.90;;;;;;5046657;28;20025;-67
2022/11/03 08:09:47;;;;;;;10.07;2.70;;;14.60;99.90;;;;;;5042175;28;20105;-64
2022/11/03 08:12:12;;;;;;;9.77;2.53;;;14.50;99.90;;;;;;5046597;28;20082;-71
2022/11/03 08:14:38;;;;;;;11.60;2.80;;;14.60;99.90;;;;;;5048698;28;20033;-66
2022/11/03 08:17:04;;;;;;;9.18;3.00;;;14.60;99.90;;;;;;5044489;28;20074;-63
2022/11/03 08:19:29;;;;;;;10.25;2.55;;;14.60;99.90;;;;;;5047389;28;20037;-63
2022/11/03 08:21:55;;;;;;;6.97;1.90;;;14.70;99.90;;;;;;5054011;28;20522;-67
2022/11/03 08:24:21;;;;;;;9.82;2.42;;;14.70;99.90;;;;;;5046064;28;20162;-60
2022/11/03 08:26:47;;;;;;;6.80;2.13;;;14.70;99.90;;;;;;5043670;28;20059;-60
2022/11/03 08:29:12;;;;;;;15.30;3.15;;;14.70;99.90;;;;;;5049542;28;20029;-63
2022/11/03 08:31:38;;;;;;;12.93;2.83;;;14.80;99.90;;;;;;5043840;28;20044;-63
2022/11/03 08:34:04;;;;;;;18.05;3.40;;;14.70;99.90;;;;;;5049385;28;20036;-65
2022/11/03 08:36:29;;;;;;;10.10;2.88;;;14.70;99.90;;;;;;5047956;28;20044;-70
2022/11/03 08:38:55;;;;;;;10.13;2.40;;;14.70;99.90;;;;;;5054348;28;20083;-67
2022/11/03 08:41:20;;;;;;;13.85;3.00;;;14.70;99.90;;;;;;5044338;28;20434;-67
2022/11/03 08:43:46;;;;;;;11.90;2.58;;;14.70;99.90;;;;;;5049376;28;20028;-63
2022/11/03 08:46:11;;;;;;;10.70;2.88;;;14.70;99.90;;;;;;5046765;28;20039;-60
2022/11/03 08:48:37;;;;;;;12.30;2.50;;;14.70;99.90;;;;;;5043971;28;20025;-65
2022/11/03 08:51:03;;;;;;;13.98;2.58;;;14.70;99.90;;;;;;5040333;28;20060;-60
2022/11/03 08:53:29;;;;;;;12.25;2.45;;;14.80;99.90;;;;;;5041526;28;20433;-64
2022/11/03 08:55:54;;;;;;;8.48;2.13;;;14.80;99.90;;;;;;5042293;28;20432;-61
2022/11/03 08:58:21;;;;;;;12.52;2.53;;;14.80;99.90;;;;;;5050596;28;20032;-66
2022/11/03 09:00:47;;;;;;;11.85;2.67;;;14.80;99.90;;;;;;5049697;28;20032;-67
2022/11/03 09:03:13;;;;;;;11.82;2.15;;;14.80;99.90;;;;;;5052170;28;20124;-62
2022/11/03 09:05:40;;;;;;;15.10;2.78;;;14.90;99.90;;;;;;5059838;28;20104;-60
2022/11/03 09:08:06;;;;;;;8.30;2.22;;;14.90;99.90;;;;;;5065596;28;20083;-64
2022/11/03 09:10:32;;;;;;;12.23;2.55;;;14.90;99.90;;;;;;5057813;28;20016;-66
2022/11/03 09:12:57;;;;;;;10.18;2.15;;;14.90;99.90;;;;;;5052611;28;20124;-67
2022/11/03 09:15:23;;;;;;;9.00;2.63;;;14.90;99.90;;;;;;5054852;28;20028;-70
2022/11/03 09:17:49;;;;;;;8.32;2.47;;;14.90;99.90;;;;;;5056722;28;20028;-65
2022/11/03 09:20:15;;;;;;;11.07;2.30;;;14.90;99.90;;;;;;5069516;28;20028;-62
2022/11/03 09:22:40;;;;;;;9.23;2.83;;;14.90;99.80;;;;;;5040789;28;20028;-62
2022/11/03 09:25:06;;;;;;;13.48;2.70;;;14.90;99.80;;;;;;5047676;28;20394;-66
2022/11/03 09:27:32;;;;;;;11.43;2.88;;;14.90;99.70;;;;;;5060951;28;20481;-73
2022/11/03 09:29:58;;;;;;;11.55;2.85;;;14.90;99.60;;;;;;5050455;28;20029;-67
2022/11/03 09:32:24;;;;;;;7.95;2.40;;;15.00;99.70;;;;;;5045537;28;20041;-70
2022/11/03 09:34:50;;;;;;;12.98;3.03;;;15.00;99.70;;;;;;5047303;28;20029;-61
2022/11/03 09:37:15;;;;;;;10.35;2.10;;;15.00;99.70;;;;;;5059001;28;20033;-62
2022/11/03 09:39:42;;;;;;;13.88;3.00;;;14.90;99.60;;;;;;5059137;28;20021;-62
2022/11/03 09:42:11;;;;;;;7.85;2.38;;;15.00;99.60;;;;;;5051157;28;20021;-62
2022/11/03 09:44:37;;;;;;;7.70;2.00;;;15.00;99.50;;;;;;5051615;28;20029;-62
2022/11/03 09:47:04;;;;;;;7.22;2.05;;;15.00;99.50;;;;;;5052415;28;20024;-64
2022/11/03 09:49:31;;;;;;;9.73;2.58;;;15.00;99.50;;;;;;5047280;28;20071;-60
2022/11/03 09:51:59;;;;;;;11.02;3.13;;;15.00;99.50;;;;;;5042792;28;20075;-62
2022/11/03 09:54:26;;;;;;;7.45;2.00;;;15.00;99.40;;;;;;5048964;28;20284;-71
2022/11/03 09:56:52;;;;;;;9.73;2.63;;;15.00;99.30;;;;;;5053178;28;20025;-71
2022/11/03 09:59:22;;;;;;;12.57;2.55;;;15.00;99.30;;;;;;5049898;28;20035;-65
2022/11/03 10:01:52;;;;;;;10.38;2.53;;;15.00;99.30;;;;;;5040911;28;20064;-69
2022/11/03 10:04:25;;;;;;;10.88;2.60;;;15.00;99.30;;;;;;5054972;28;20031;-72
2022/11/03 10:06:51;;;;;;;12.30;3.08;;;15.00;99.40;;;;;;5050815;28;20051;-66
2022/11/03 10:09:19;;;;;;;10.13;3.00;;;15.00;99.40;;;;;;5052352;28;20061;-75
2022/11/03 10:11:46;;;;;;;8.80;2.28;;;15.00;99.30;;;;;;5054721;28;20037;-74
2022/11/03 10:14:14;;;;;;;9.63;2.40;;;15.00;99.20;;;;;;5042626;28;20037;-75
2022/11/03 10:16:41;;;;;;;7.78;2.47;;;15.10;99.30;;;;;;5043889;28;20025;-74
2022/11/03 10:19:10;;;;;;;10.77;2.17;;;15.10;99.30;;;;;;5045612;28;20025;-74
2022/11/03 10:21:37;;;;;;;10.02;2.00;;;15.10;99.30;;;;;;5043447;28;20037;-71
2022/11/03 10:24:03;;;;;;;10.10;2.65;;;15.10;99.30;;;;;;5048311;28;20079;-71
2022/11/03 10:26:34;;;;;;;9.10;2.45;;;15.10;99.20;;;;;;5065428;28;20033;-74
2022/11/03 10:29:04;;;;;;;6.88;2.20;;;15.20;99.30;;;;;;5043203;28;20013;-67
2022/11/03 10:31:35;;;;;;;8.88;2.33;;;15.20;99.20;;;;;;5049578;28;20033;-70
2022/11/03 10:34:01;;;;;;;9.73;2.28;;;15.20;99.20;;;;;;5039065;28;20517;-64
2022/11/03 10:36:29;;;;;;;11.95;2.05;;;15.20;99.20;;;;;;5047087;28;20119;-73
2022/11/03 10:38:55;;;;;;;9.80;3.22;;;15.20;99.20;;;;;;5054603;28;20032;-74
2022/11/03 10:41:31;;;;;;;14.73;2.22;;;15.20;99.10;;;;;;5046076;28;20033;-68
2022/11/03 10:44:04;;;;;;;5.78;2.03;;;15.30;99.10;;;;;;5045519;28;20025;-70
2022/11/03 10:46:31;;;;;;;6.43;1.63;;;15.30;99.00;;;;;;5067750;28;20029;-69
2022/11/03 10:49:18;;;;;;;12.20;2.78;;;15.30;99.00;;;;;;5061245;28;20028;-71
2022/11/03 10:51:47;;;;;;;10.00;2.42;;;15.30;98.90;;;;;;5044416;28;20033;-64
2022/11/03 10:54:15;;;;;;;11.13;2.60;;;15.30;98.80;;;;;;5046907;28;20453;-68
2022/11/03 10:56:42;;;;;;;10.00;1.92;;;15.30;98.80;;;;;;5048464;28;20367;-62
2022/11/03 10:59:31;;;;;;;8.35;2.15;;;15.30;98.80;;;;;;5043093;28;20028;-62
2022/11/03 11:01:58;;;;;;;9.55;2.40;;;15.40;98.80;;;;;;5053166;28;20021;-62
2022/11/03 11:04:24;;;;;;;15.57;2.85;;;15.40;98.80;;;;;;5059009;28;20075;-65
2022/11/03 11:06:50;;;;;;;10.93;1.92;;;15.40;98.70;;;;;;5052736;28;20553;-66
2022/11/03 11:09:26;;;;;;;9.52;2.00;;;15.40;98.70;;;;;;5050150;28;20025;-66
2022/11/03 11:12:15;;;;;;;15.77;2.42;;;15.40;98.70;;;;;;5049420;28;20029;-65
2022/11/03 11:15:25;;;;;;;9.48;2.03;;;15.40;98.70;;;;;;5044853;28;20558;-65
2022/11/03 11:17:51;;;;;;;13.93;2.38;;;15.50;98.70;;;;;;5063881;28;20118;-62
2022/11/03 11:20:20;;;;;;;10.38;2.00;;;15.50;98.70;;;;;;5056449;28;20385;-66
2022/11/03 11:22:49;;;;;;;29.88;6.05;;;15.50;98.60;;;;;;5059735;28;20070;-61
2022/11/03 11:25:18;;;;;;;6.38;1.80;;;15.50;98.60;;;;;;5052509;28;20127;-61
2022/11/03 11:27:43;;;;;;;21.90;3.42;;;15.50;98.50;;;;;;5048871;28;20037;-61
2022/11/03 11:30:18;;;;;;;20.90;3.28;;;15.60;98.60;;;;;;5047041;28;20036;-64
2022/11/03 11:32:43;;;;;;;9.65;2.15;;;15.60;98.50;;;;;;5054018;28;20036;-61
2022/11/03 11:35:29;;;;;;;7.32;1.88;;;15.60;98.50;;;;;;5046111;28;20032;-66
2022/11/03 11:37:54;;;;;;;9.30;2.28;;;15.60;98.50;;;;;;5053331;28;20104;-65
2022/11/03 11:40:23;;;;;;;8.98;2.13;;;15.60;98.50;;;;;;5052831;28;20508;-68
2022/11/03 11:43:01;;;;;;;9.73;1.88;;;15.60;98.40;;;;;;5048519;28;20035;-62
2022/11/03 11:46:05;;;;;;;4.60;1.45;;;15.70;98.30;;;;;;5041223;28;20522;-70
2022/11/03 11:48:31;;;;;;;6.00;2.05;;;15.70;98.40;;;;;;5044112;28;20113;-67
2022/11/03 11:50:57;;;;;;;9.70;1.92;;;15.70;98.30;;;;;;5051514;28;20024;-64
2022/11/03 11:53:24;;;;;;;7.88;1.58;;;15.70;98.30;;;;;;5040126;28;20035;-66
2022/11/03 11:55:54;;;;;;;7.53;1.75;;;15.70;98.30;;;;;;5052558;28;20017;-65
2022/11/03 11:58:45;;;;;;;4.88;1.67;;;15.70;98.10;;;;;;5047361;28;20048;-69
2022/11/03 12:01:26;;;;;;;4.88;1.67;;;15.70;98.00;;;;;;5050406;28;20036;-68
2022/11/03 12:03:57;;;;;;;6.88;1.40;;;15.70;97.90;;;;;;5037159;28;20789;-63
2022/11/03 12:06:33;;;;;;;3.70;1.37;;;15.70;97.70;;;;;;5041696;28;20025;-65
2022/11/03 12:09:05;;;;;;;6.57;1.75;;;15.80;97.70;;;;;;5052120;28;20021;-65
2022/11/03 12:11:50;;;;;;;5.03;1.80;;;15.80;97.70;;;;;;5034940;28;20048;-78
2022/11/03 12:14:28;;;;;;;5.35;1.40;;;15.80;97.70;;;;;;5045148;28;20091;-68
2022/11/03 12:16:58;;;;;;;5.13;1.33;;;15.80;97.80;;;;;;5049736;28;20107;-70
2022/11/03 12:19:41;;;;;;;5.93;1.63;;;15.90;97.80;;;;;;5047135;28;20037;-69
2022/11/03 12:22:31;;;;;;;7.72;1.38;;;15.90;97.60;;;;;;5042850;28;20040;-63
2022/11/03 12:25:03;;;;;;;9.50;2.97;;;15.90;97.50;;;;;;5038583;28;20040;-64
2022/11/03 12:27:29;;;;;;;10.32;2.40;;;15.90;97.90;;;;;;5049943;28;20024;-70
2022/11/03 12:29:56;;;;;;;25.08;3.92;;;15.90;98.00;;;;;;5047918;28;20094;-72
2022/11/03 12:32:23;;;;;;;8.32;2.30;;;15.90;97.90;;;;;;5054683;28;20505;-69
2022/11/03 12:34:48;;;;;;;5.38;1.60;;;16.00;97.70;;;;;;5045047;28;20117;-64
2022/11/03 12:37:14;;;;;;;9.43;2.00;;;16.00;97.70;;;;;;5049087;28;20061;-61
2022/11/03 12:39:40;;;;;;;5.45;1.33;;;16.00;97.50;;;;;;5043747;28;20113;-64
2022/11/03 12:42:06;;;;;;;6.97;1.50;;;16.00;97.40;;;;;;5048833;28;20060;-60
2022/11/03 12:44:32;;;;;;;8.73;1.67;;;16.00;97.50;;;;;;5048599;28;20025;-63
2022/11/03 12:46:58;;;;;;;8.18;1.90;;;16.00;97.60;;;;;;5051149;28;20063;-60
2022/11/03 12:49:24;;;;;;;8.93;1.58;;;16.00;97.60;;;;;;5054939;28;20029;-62
2022/11/03 12:51:50;;;;;;;9.65;1.80;;;16.10;97.50;;;;;;5055841;28;20031;-63
2022/11/03 12:54:16;;;;;;;6.40;1.40;;;16.10;97.40;;;;;;5051577;28;20036;-64
2022/11/03 12:56:41;;;;;;;34.75;2.88;;;16.10;97.20;;;;;;5054857;28;20021;-68
2022/11/03 12:59:07;;;;;;;9.75;1.40;;;16.10;96.90;;;;;;5052257;28;20039;-67
2022/11/03 13:01:32;;;;;;;8.48;1.60;;;16.10;96.80;;;;;;5059431;28;20013;-64
2022/11/03 13:03:58;;;;;;;4.32;1.58;;;16.10;96.90;;;;;;5058122;28;20025;-64
2022/11/03 13:06:24;;;;;;;4.00;1.13;;;16.20;96.90;;;;;;5065162;28;20116;-68
2022/11/03 13:08:50;;;;;;;9.18;2.00;;;16.10;96.80;;;;;;5051681;28;20021;-66
2022/11/03 13:14:00;;;;;;;4.75;1.88;;;16.10;96.80;;;;;;5050841;28;20095;-66